METAR Data
IDs: Format: Raw Decoded Include TAF

Data at: 1415 UTC 27 Nov 2021

LOXZ 271350Z 00000KT 5000 -RA FEW004ST SCT015ST BKN020SC 01/00 Q0993 NOSIG